Time;durP1;ratioP1;P1;durP2;ratioP2;P2;SDS_P1;SDS_P2;PMS_P1;PMS_P2;Temp;Humidity;BMP_temperature;BMP_pressure;BME280_temperature;BME280_humidity;BME280_pressure;Samples;Min_cycle;Max_cycle;Signal;HPM_P1;HPM_P2
2022/07/29 00:00:45;;;;;;;1.65;0.70;;;22.60;52.80;;;;;;4509322;31;20064;-66
2022/07/29 00:03:11;;;;;;;1.60;0.75;;;22.60;52.80;;;;;;4509552;31;20064;-66
2022/07/29 00:05:41;;;;;;;1.75;0.70;;;22.60;52.80;;;;;;4509625;31;20250;-66
2022/07/29 00:08:08;;;;;;;1.60;0.80;;;22.60;52.80;;;;;;4509288;31;20080;-65
2022/07/29 00:10:35;;;;;;;2.05;0.80;;;22.60;52.90;;;;;;4509182;31;20157;-66
2022/07/29 00:13:01;;;;;;;2.00;0.80;;;22.60;52.90;;;;;;4509051;31;20207;-66
2022/07/29 00:15:27;;;;;;;1.02;0.52;;;22.60;52.90;;;;;;4509390;31;20095;-66
2022/07/29 00:17:52;;;;;;;1.10;0.70;;;22.60;52.90;;;;;;4508743;31;20073;-66
2022/07/29 00:20:19;;;;;;;1.60;0.80;;;22.60;52.90;;;;;;4509570;31;20401;-65
2022/07/29 00:22:44;;;;;;;2.28;0.90;;;22.60;52.90;;;;;;4509257;31;20162;-65
2022/07/29 00:25:12;;;;;;;2.47;0.90;;;22.60;52.90;;;;;;4509210;31;20084;-66
2022/07/29 00:27:38;;;;;;;1.30;0.70;;;22.60;52.90;;;;;;4509224;31;20096;-66
2022/07/29 00:30:06;;;;;;;1.55;0.70;;;22.60;53.00;;;;;;4509144;31;20073;-66
2022/07/29 00:32:31;;;;;;;1.63;0.80;;;22.60;52.90;;;;;;4508833;31;20079;-66
2022/07/29 00:37:42;;;;;;;1.30;0.90;;;22.60;53.00;;;;;;4509024;31;20490;-66
2022/07/29 00:40:08;;;;;;;1.65;0.80;;;22.60;53.00;;;;;;4508707;31;20146;-65
2022/07/29 00:42:48;;;;;;;1.92;1.02;;;22.60;53.00;;;;;;4508882;31;20138;-66
2022/07/29 00:45:14;;;;;;;2.85;0.80;;;22.50;52.90;;;;;;4509033;31;20076;-66
2022/07/29 00:47:40;;;;;;;1.75;0.70;;;22.50;53.00;;;;;;4508634;31;20077;-66
2022/07/29 00:50:08;;;;;;;1.80;0.63;;;22.50;53.00;;;;;;4508927;31;20127;-67
2022/07/29 00:52:36;;;;;;;1.80;0.75;;;22.50;53.00;;;;;;4508808;31;20587;-66
2022/07/29 00:55:05;;;;;;;1.58;0.77;;;22.50;53.10;;;;;;4509047;31;20088;-65
2022/07/29 00:57:32;;;;;;;1.10;0.63;;;22.50;53.10;;;;;;4508472;31;20203;-66
2022/07/29 00:59:58;;;;;;;1.38;0.80;;;22.50;53.10;;;;;;4494155;31;20132;-66
2022/07/29 01:02:24;;;;;;;1.65;0.80;;;22.50;54.00;;;;;;4508787;31;20202;-66
2022/07/29 01:04:50;;;;;;;1.73;0.80;;;22.50;53.20;;;;;;4508879;31;20590;-66
2022/07/29 01:07:17;;;;;;;1.50;0.70;;;22.50;53.10;;;;;;4508612;31;20199;-66
2022/07/29 01:09:45;;;;;;;1.55;0.77;;;22.50;53.10;;;;;;4508578;31;20073;-65
2022/07/29 01:12:19;;;;;;;0.70;0.50;;;22.50;53.20;;;;;;4508744;31;20068;-67
2022/07/29 01:14:47;;;;;;;1.17;0.77;;;22.50;53.20;;;;;;4508862;31;20069;-65
2022/07/29 01:17:48;;;;;;;1.15;0.60;;;22.50;53.20;;;;;;4508405;31;20198;-66
2022/07/29 01:20:25;;;;;;;1.52;0.60;;;22.50;53.20;;;;;;4508775;31;20123;-65
2022/07/29 01:23:00;;;;;;;1.95;0.60;;;22.50;53.20;;;;;;4508463;31;20498;-65
2022/07/29 01:25:53;;;;;;;0.93;0.47;;;22.50;53.20;;;;;;4508356;31;20096;-66
2022/07/29 01:28:43;;;;;;;0.75;0.60;;;22.50;53.30;;;;;;4508418;31;20108;-66
2022/07/29 01:31:11;;;;;;;1.33;0.47;;;22.50;53.30;;;;;;4508415;31;20120;-65
2022/07/29 01:33:49;;;;;;;1.13;0.73;;;22.50;53.30;;;;;;4493927;31;20116;-66
2022/07/29 01:36:23;;;;;;;1.05;0.60;;;22.50;53.30;;;;;;4508266;31;20418;-66
2022/07/29 01:39:09;;;;;;;1.48;0.75;;;22.40;53.30;;;;;;4508516;31;20218;-66
2022/07/29 01:41:44;;;;;;;1.60;0.77;;;22.50;53.30;;;;;;4493984;31;20057;-65
2022/07/29 01:44:22;;;;;;;1.40;0.60;;;22.40;53.30;;;;;;4507935;31;20178;-65
2022/07/29 01:46:58;;;;;;;1.77;0.60;;;22.50;53.40;;;;;;4508162;31;20229;-66
2022/07/29 01:49:32;;;;;;;0.85;0.50;;;22.40;53.30;;;;;;4508212;31;20085;-66
2022/07/29 01:52:11;;;;;;;0.85;0.60;;;22.40;53.30;;;;;;4508128;31;20170;-65
2022/07/29 01:54:48;;;;;;;1.92;0.52;;;22.40;53.30;;;;;;4508513;31;20069;-66
2022/07/29 01:57:20;;;;;;;2.05;0.50;;;22.40;53.40;;;;;;4508110;31;20411;-65
2022/07/29 01:59:48;;;;;;;1.38;0.80;;;22.40;53.30;;;;;;4508065;31;20073;-66
2022/07/29 02:02:16;;;;;;;1.48;0.47;;;22.40;53.30;;;;;;4507661;31;20070;-66
2022/07/29 02:04:45;;;;;;;1.25;0.60;;;22.40;53.40;;;;;;4508170;31;20077;-66
2022/07/29 02:07:15;;;;;;;0.93;0.50;;;22.40;53.30;;;;;;4507797;31;20147;-66
2022/07/29 02:09:42;;;;;;;1.10;0.50;;;22.40;53.40;;;;;;4507915;31;20064;-65
2022/07/29 02:12:10;;;;;;;0.75;0.50;;;22.40;53.40;;;;;;4507852;31;20449;-66
2022/07/29 02:14:44;;;;;;;1.45;0.60;;;22.40;53.40;;;;;;4507662;31;20123;-65
2022/07/29 02:17:12;;;;;;;1.02;0.70;;;22.40;53.40;;;;;;4508141;31;20073;-66
2022/07/29 02:19:38;;;;;;;1.13;0.63;;;22.40;53.40;;;;;;4507828;31;20178;-65
2022/07/29 02:22:06;;;;;;;0.80;0.50;;;22.40;53.50;;;;;;4507484;31;20073;-65
2022/07/29 02:24:33;;;;;;;1.15;0.65;;;22.40;53.50;;;;;;4507997;31;20087;-66
2022/07/29 02:27:00;;;;;;;0.80;0.50;;;22.40;53.50;;;;;;4507776;31;20084;-69
2022/07/29 02:29:28;;;;;;;1.02;0.68;;;22.40;54.40;;;;;;4507422;31;20285;-66
2022/07/29 02:31:57;;;;;;;2.72;0.60;;;22.40;53.50;;;;;;4507694;31;20199;-66
2022/07/29 02:34:24;;;;;;;0.90;0.50;;;22.40;53.50;;;;;;4507634;31;20596;-66
2022/07/29 02:36:50;;;;;;;0.90;0.60;;;22.40;53.50;;;;;;4507662;31;20068;-66
2022/07/29 02:39:18;;;;;;;1.13;0.60;;;22.40;53.50;;;;;;4507679;31;20185;-66
2022/07/29 02:41:51;;;;;;;1.45;0.70;;;22.30;53.50;;;;;;4509957;31;20531;-65
2022/07/29 02:44:21;;;;;;;1.25;0.70;;;22.40;53.50;;;;;;4510489;31;20510;-66
2022/07/29 02:46:51;;;;;;;0.98;0.50;;;22.30;53.50;;;;;;4510722;31;20090;-66
2022/07/29 02:49:23;;;;;;;0.90;0.70;;;22.30;53.50;;;;;;4510767;31;20209;-65
2022/07/29 02:52:01;;;;;;;1.15;0.55;;;22.30;53.50;;;;;;4510467;31;20084;-66
2022/07/29 02:54:38;;;;;;;1.08;0.43;;;22.30;53.50;;;;;;4510685;31;20510;-66
2022/07/29 02:57:10;;;;;;;0.93;0.52;;;22.30;53.50;;;;;;4510698;31;20073;-66
2022/07/29 02:59:39;;;;;;;0.60;0.40;;;22.30;53.60;;;;;;4496364;31;20065;-66
2022/07/29 03:02:06;;;;;;;0.98;0.55;;;22.30;53.60;;;;;;4510468;31;20080;-66
2022/07/29 03:04:34;;;;;;;1.80;0.60;;;22.30;53.60;;;;;;4510444;31;20214;-66
2022/07/29 03:07:04;;;;;;;0.82;0.50;;;22.30;53.60;;;;;;4510488;31;20080;-65
2022/07/29 03:09:31;;;;;;;0.80;0.43;;;22.30;53.60;;;;;;4510412;31;20088;-65
2022/07/29 03:11:57;;;;;;;0.98;0.57;;;22.30;53.70;;;;;;4509601;31;20249;-66
2022/07/29 03:14:24;;;;;;;1.00;0.50;;;22.30;53.60;;;;;;4510164;31;20087;-66
2022/07/29 03:16:51;;;;;;;0.40;0.30;;;22.30;53.70;;;;;;4495733;31;20086;-66
2022/07/29 03:19:18;;;;;;;0.85;0.50;;;22.30;53.70;;;;;;4510419;31;20084;-65
2022/07/29 03:21:44;;;;;;;0.88;0.57;;;22.30;53.70;;;;;;4510344;31;20060;-66
2022/07/29 03:24:10;;;;;;;0.65;0.40;;;22.30;53.70;;;;;;4510107;31;20410;-67
2022/07/29 03:26:35;;;;;;;0.68;0.50;;;22.30;53.70;;;;;;4510029;31;20076;-66
2022/07/29 03:29:04;;;;;;;1.30;0.40;;;22.30;53.70;;;;;;4495734;31;20073;-66
2022/07/29 03:31:29;;;;;;;1.08;0.50;;;22.20;53.70;;;;;;4509627;31;20181;-67
2022/07/29 03:33:57;;;;;;;0.45;0.30;;;22.20;53.70;;;;;;4510040;31;20214;-66
2022/07/29 03:36:25;;;;;;;1.20;0.63;;;22.20;53.70;;;;;;4509891;31;20221;-66
2022/07/29 03:38:51;;;;;;;1.27;0.50;;;22.20;53.70;;;;;;4496134;31;20222;-66
2022/07/29 03:41:19;;;;;;;0.95;0.50;;;22.20;53.70;;;;;;4509523;31;20161;-66
2022/07/29 03:43:47;;;;;;;0.35;0.30;;;22.20;53.70;;;;;;4509383;31;20165;-66
2022/07/29 03:46:16;;;;;;;1.13;0.57;;;22.20;53.70;;;;;;4509677;31;20085;-66
2022/07/29 03:48:45;;;;;;;1.08;0.50;;;22.20;53.70;;;;;;4509756;31;20209;-66
2022/07/29 03:51:11;;;;;;;1.13;0.57;;;22.20;53.70;;;;;;4509589;31;20532;-66
2022/07/29 03:53:37;;;;;;;1.13;0.75;;;22.20;53.70;;;;;;4508837;31;20087;-66
2022/07/29 03:56:05;;;;;;;1.15;0.65;;;22.20;53.80;;;;;;4509464;31;20088;-66
2022/07/29 03:58:32;;;;;;;0.70;0.40;;;22.20;53.80;;;;;;4509490;31;20085;-66
2022/07/29 04:00:59;;;;;;;1.10;0.50;;;22.20;53.80;;;;;;4509553;31;20096;-66
2022/07/29 04:03:25;;;;;;;1.10;0.50;;;22.20;53.90;;;;;;4495262;31;20072;-66
2022/07/29 04:06:06;;;;;;;1.05;0.50;;;22.20;53.80;;;;;;4509260;31;20620;-65
2022/07/29 04:08:33;;;;;;;0.35;0.30;;;22.20;53.80;;;;;;4509473;31;20068;-65
2022/07/29 04:11:00;;;;;;;0.85;0.43;;;22.20;53.90;;;;;;4509470;31;20080;-65
2022/07/29 04:13:26;;;;;;;0.73;0.50;;;22.20;53.80;;;;;;4508966;31;20165;-66
2022/07/29 04:15:52;;;;;;;1.13;0.68;;;22.20;53.90;;;;;;4509259;31;20081;-66
2022/07/29 04:18:18;;;;;;;0.85;0.47;;;22.20;53.90;;;;;;4509320;31;20206;-66
2022/07/29 04:20:44;;;;;;;1.10;0.40;;;22.20;53.90;;;;;;4509282;31;20057;-65
2022/07/29 04:23:10;;;;;;;1.75;0.60;;;22.20;53.90;;;;;;4509550;31;20610;-66
2022/07/29 04:25:40;;;;;;;0.60;0.40;;;22.20;53.90;;;;;;4509049;31;20088;-66
2022/07/29 04:28:07;;;;;;;0.65;0.50;;;22.20;53.90;;;;;;4494713;31;20089;-66
2022/07/29 04:30:34;;;;;;;0.75;0.30;;;22.20;54.00;;;;;;4509178;31;20088;-66
2022/07/29 04:33:01;;;;;;;0.70;0.40;;;22.10;53.90;;;;;;4509042;31;20086;-65
2022/07/29 04:35:29;;;;;;;0.30;0.30;;;22.20;53.90;;;;;;4509360;31;20089;-67
2022/07/29 04:37:55;;;;;;;1.08;0.47;;;22.10;54.00;;;;;;4508706;31;20172;-65
2022/07/29 04:40:21;;;;;;;0.47;0.30;;;22.20;54.00;;;;;;4509001;31;20095;-65
2022/07/29 04:42:46;;;;;;;0.80;0.40;;;22.10;54.00;;;;;;4508902;31;20096;-66
2022/07/29 04:45:12;;;;;;;0.70;0.40;;;22.10;54.00;;;;;;4508913;31;20169;-66
2022/07/29 04:47:38;;;;;;;0.63;0.40;;;22.10;54.00;;;;;;4508656;31;20124;-65
2022/07/29 04:50:06;;;;;;;0.80;0.30;;;22.10;54.00;;;;;;4508636;31;20075;-65
2022/07/29 04:52:32;;;;;;;0.85;0.40;;;22.10;54.00;;;;;;4508607;31;20199;-66
2022/07/29 04:54:58;;;;;;;1.05;0.50;;;22.10;54.00;;;;;;4508543;31;20485;-65
2022/07/29 04:57:24;;;;;;;0.95;0.45;;;22.10;54.00;;;;;;4508774;31;20088;-66
2022/07/29 04:59:50;;;;;;;0.98;0.52;;;22.10;54.00;;;;;;4509005;31;20072;-66
2022/07/29 05:02:15;;;;;;;1.48;0.45;;;22.10;54.00;;;;;;4508666;31;20080;-66
2022/07/29 05:04:41;;;;;;;0.93;0.52;;;22.10;54.00;;;;;;4508425;31;20073;-65
2022/07/29 05:07:07;;;;;;;1.58;0.60;;;22.10;54.10;;;;;;4508405;31;20624;-65
2022/07/29 05:09:33;;;;;;;0.80;0.28;;;22.10;54.10;;;;;;4508826;31;20061;-65
2022/07/29 05:11:59;;;;;;;0.98;0.40;;;22.10;54.10;;;;;;4508538;31;20413;-66
2022/07/29 05:14:25;;;;;;;0.73;0.50;;;22.10;54.10;;;;;;4508644;31;20169;-66
2022/07/29 05:16:50;;;;;;;1.98;0.63;;;22.10;54.10;;;;;;4508237;31;20191;-65
2022/07/29 05:19:17;;;;;;;1.02;0.55;;;22.10;54.10;;;;;;4508652;31;20071;-65
2022/07/29 05:21:44;;;;;;;0.82;0.30;;;22.10;55.10;;;;;;4508709;31;20160;-66
2022/07/29 05:24:10;;;;;;;0.73;0.38;;;22.10;54.10;;;;;;4508474;31;20093;-66
2022/07/29 05:26:37;;;;;;;0.77;0.38;;;22.10;54.10;;;;;;4508609;31;20083;-66
2022/07/29 05:29:02;;;;;;;1.10;0.30;;;22.10;54.10;;;;;;4508046;31;20077;-65
2022/07/29 05:31:28;;;;;;;1.13;0.50;;;22.10;54.20;;;;;;4508481;31;20088;-66
2022/07/29 05:33:54;;;;;;;1.77;0.40;;;22.10;54.10;;;;;;4508027;31;20255;-66
2022/07/29 05:36:21;;;;;;;1.52;0.50;;;22.10;54.20;;;;;;4508322;31;20210;-65
2022/07/29 05:38:47;;;;;;;0.63;0.40;;;22.10;54.20;;;;;;4508579;31;20079;-66
2022/07/29 05:41:13;;;;;;;1.20;0.65;;;22.10;54.20;;;;;;4507695;31;20165;-66
2022/07/29 05:43:38;;;;;;;0.88;0.40;;;22.10;54.30;;;;;;4508060;31;20128;-66
2022/07/29 05:46:04;;;;;;;1.05;0.40;;;22.10;54.30;;;;;;4508082;31;20486;-65
2022/07/29 05:48:30;;;;;;;0.52;0.40;;;22.10;54.30;;;;;;4507816;31;20076;-66
2022/07/29 05:50:56;;;;;;;0.50;0.38;;;22.10;54.30;;;;;;4493470;31;20591;-66
2022/07/29 05:53:22;;;;;;;1.15;0.40;;;22.10;54.30;;;;;;4508297;31;20118;-65
2022/07/29 05:55:49;;;;;;;0.70;0.50;;;22.10;54.30;;;;;;4507731;31;20120;-65
2022/07/29 05:58:15;;;;;;;1.00;0.60;;;22.10;54.30;;;;;;4507709;31;20068;-65
2022/07/29 06:00:40;;;;;;;1.38;0.55;;;22.10;54.30;;;;;;4507971;31;20077;-65
2022/07/29 06:03:06;;;;;;;1.15;0.50;;;22.10;54.30;;;;;;4507771;31;20600;-65
2022/07/29 06:05:32;;;;;;;1.20;0.50;;;22.10;54.30;;;;;;4507612;31;20651;-65
2022/07/29 06:07:58;;;;;;;0.63;0.50;;;22.10;54.40;;;;;;4507908;31;20147;-66
2022/07/29 06:10:24;;;;;;;1.42;0.50;;;22.10;54.40;;;;;;4508117;31;20498;-65
2022/07/29 06:12:50;;;;;;;0.95;0.40;;;22.10;54.40;;;;;;4507723;31;20209;-66
2022/07/29 06:15:16;;;;;;;0.82;0.50;;;22.10;54.40;;;;;;4506925;31;20089;-66
2022/07/29 06:17:41;;;;;;;0.70;0.50;;;22.10;54.40;;;;;;4507815;31;20506;-66
2022/07/29 06:20:08;;;;;;;0.73;0.60;;;22.10;54.40;;;;;;4493276;31;20108;-65
2022/07/29 06:22:34;;;;;;;0.45;0.30;;;22.10;54.40;;;;;;4507438;31;20576;-65
2022/07/29 06:25:01;;;;;;;1.20;0.50;;;22.10;54.40;;;;;;4507761;31;20069;-65
2022/07/29 06:27:27;;;;;;;1.20;0.70;;;22.10;54.50;;;;;;4507712;31;20100;-66
2022/07/29 06:29:53;;;;;;;1.95;0.30;;;22.10;54.50;;;;;;4507783;31;20482;-65
2022/07/29 06:32:19;;;;;;;1.65;0.60;;;22.20;54.60;;;;;;4507654;31;20085;-66
2022/07/29 06:34:45;;;;;;;0.85;0.60;;;22.20;54.50;;;;;;4508055;31;20061;-65
2022/07/29 06:37:12;;;;;;;3.53;0.68;;;22.20;54.50;;;;;;4507335;31;20185;-65
2022/07/29 06:39:37;;;;;;;2.97;0.57;;;22.20;54.70;;;;;;4507581;31;20277;-66
2022/07/29 06:42:04;;;;;;;4.43;0.60;;;22.20;54.80;;;;;;4493064;31;20437;-66
2022/07/29 06:44:30;;;;;;;2.95;0.70;;;22.20;54.90;;;;;;4507533;31;20528;-66
2022/07/29 06:46:56;;;;;;;2.33;0.80;;;22.20;54.90;;;;;;4507265;31;20395;-66
2022/07/29 06:49:24;;;;;;;2.78;0.93;;;22.20;54.90;;;;;;4507205;31;20085;-66
2022/07/29 06:51:49;;;;;;;5.47;1.02;;;22.20;55.00;;;;;;4507489;31;20094;-65
2022/07/29 06:54:15;;;;;;;1.45;0.82;;;22.20;55.00;;;;;;4507782;31;20077;-66
2022/07/29 06:56:42;;;;;;;4.97;1.00;;;22.20;55.00;;;;;;4507434;31;20072;-65
2022/07/29 06:59:10;;;;;;;0.95;0.70;;;22.20;55.10;;;;;;4507442;31;20118;-65
2022/07/29 07:01:41;;;;;;;2.80;1.10;;;22.20;56.00;;;;;;4507428;31;20088;-65
2022/07/29 07:04:10;;;;;;;2.72;0.85;;;22.20;55.10;;;;;;4507198;31;20157;-65
2022/07/29 07:06:37;;;;;;;7.28;0.98;;;22.20;55.10;;;;;;4507076;31;20449;-65
2022/07/29 07:09:04;;;;;;;4.32;0.98;;;22.20;55.10;;;;;;4507420;31;20507;-66
2022/07/29 07:11:29;;;;;;;4.63;1.08;;;22.20;55.10;;;;;;4507202;31;20097;-66
2022/07/29 07:13:55;;;;;;;1.75;0.68;;;22.20;55.10;;;;;;4507213;31;20266;-65
2022/07/29 07:16:21;;;;;;;2.95;0.80;;;22.20;55.10;;;;;;4507062;31;20065;-66
2022/07/29 07:18:47;;;;;;;4.43;1.17;;;22.20;55.20;;;;;;4507503;31;20081;-65
2022/07/29 07:21:12;;;;;;;3.50;1.10;;;22.20;55.20;;;;;;4507315;31;20215;-65
2022/07/29 07:23:38;;;;;;;1.98;0.85;;;22.20;55.20;;;;;;4507498;31;20190;-66
2022/07/29 07:26:05;;;;;;;3.88;0.95;;;22.30;55.30;;;;;;4507128;31;20139;-65
2022/07/29 07:28:31;;;;;;;2.30;0.90;;;22.20;55.30;;;;;;4509762;31;20206;-66
2022/07/29 07:30:57;;;;;;;3.65;0.80;;;22.20;55.20;;;;;;4510016;31;20068;-66
2022/07/29 07:33:23;;;;;;;2.13;0.88;;;22.20;55.30;;;;;;4495627;31;20498;-65
2022/07/29 07:35:48;;;;;;;2.65;1.10;;;22.20;55.20;;;;;;4510213;31;20118;-65
2022/07/29 07:38:15;;;;;;;2.47;1.20;;;22.30;55.30;;;;;;4509721;31;20115;-66
2022/07/29 07:40:41;;;;;;;2.63;1.15;;;22.30;55.30;;;;;;4509804;31;20077;-65
2022/07/29 07:43:07;;;;;;;3.35;0.88;;;22.30;55.30;;;;;;4509743;31;20185;-66
2022/07/29 07:45:32;;;;;;;4.88;1.00;;;22.30;55.30;;;;;;4509458;31;20072;-66
2022/07/29 07:47:59;;;;;;;4.18;1.10;;;22.30;55.40;;;;;;4509733;31;20088;-66
2022/07/29 07:50:24;;;;;;;3.72;1.00;;;22.30;55.30;;;;;;4509901;31;20065;-66
2022/07/29 07:52:53;;;;;;;1.95;1.00;;;22.30;55.30;;;;;;4495428;31;20468;-65
2022/07/29 07:55:19;;;;;;;3.67;0.93;;;22.30;55.30;;;;;;4509256;31;20125;-66
2022/07/29 07:57:46;;;;;;;5.03;1.00;;;22.30;55.40;;;;;;4509806;31;20080;-66
2022/07/29 08:00:13;;;;;;;2.15;0.80;;;22.30;55.30;;;;;;4509666;31;20077;-65
2022/07/29 08:02:40;;;;;;;3.22;1.20;;;22.30;55.40;;;;;;4509587;31;20172;-65
2022/07/29 08:05:07;;;;;;;2.92;1.10;;;22.30;55.30;;;;;;4509541;31;20065;-66
2022/07/29 08:07:33;;;;;;;1.80;0.82;;;22.30;55.30;;;;;;4495423;31;20222;-66
2022/07/29 08:09:59;;;;;;;4.35;1.05;;;22.30;55.30;;;;;;4509688;31;20608;-65
2022/07/29 08:12:25;;;;;;;2.90;1.00;;;22.40;55.30;;;;;;4509746;31;20210;-66
2022/07/29 08:14:51;;;;;;;1.67;0.75;;;22.40;55.30;;;;;;4494987;31;20099;-65
2022/07/29 08:17:17;;;;;;;2.90;1.10;;;22.40;55.30;;;;;;4509080;31;20077;-65
2022/07/29 08:19:43;;;;;;;3.10;1.08;;;22.40;55.30;;;;;;4509408;31;20069;-65
2022/07/29 08:22:09;;;;;;;2.08;1.00;;;22.40;55.30;;;;;;4509086;31;20185;-65
2022/07/29 08:24:46;;;;;;;3.75;1.35;;;22.40;55.30;;;;;;4508971;31;20128;-65
2022/07/29 08:27:13;;;;;;;3.35;1.00;;;22.40;55.30;;;;;;4496135;31;20138;-65
2022/07/29 08:29:40;;;;;;;3.85;0.90;;;22.40;55.40;;;;;;4509336;31;20496;-65
2022/07/29 08:32:06;;;;;;;2.58;1.38;;;22.40;55.30;;;;;;4509407;31;20234;-65
2022/07/29 08:34:32;;;;;;;5.20;1.00;;;22.40;55.40;;;;;;4509031;31;20085;-66
2022/07/29 08:36:58;;;;;;;4.22;1.10;;;22.40;55.30;;;;;;4508853;31;20116;-65
2022/07/29 08:39:25;;;;;;;2.22;1.00;;;22.40;55.20;;;;;;4494389;31;20509;-65
2022/07/29 08:41:52;;;;;;;3.53;0.90;;;22.40;55.20;;;;;;4508980;31;20065;-65
2022/07/29 08:44:19;;;;;;;4.05;1.20;;;22.40;55.20;;;;;;4509127;31;20065;-65
2022/07/29 08:46:45;;;;;;;2.95;1.20;;;22.40;55.20;;;;;;4509200;31;20410;-65
2022/07/29 08:49:11;;;;;;;4.40;1.20;;;22.40;55.10;;;;;;4508852;31;20476;-65
2022/07/29 08:51:39;;;;;;;3.50;1.30;;;22.40;55.10;;;;;;4508866;31;20490;-65
2022/07/29 08:54:07;;;;;;;3.65;1.13;;;22.40;55.10;;;;;;4508750;31;20226;-65
2022/07/29 08:56:33;;;;;;;2.60;1.05;;;22.40;55.10;;;;;;4508860;31;20173;-66
2022/07/29 08:59:03;;;;;;;6.75;1.50;;;22.40;55.10;;;;;;4508436;31;20108;-65
2022/07/29 09:01:31;;;;;;;4.22;1.20;;;22.50;55.10;;;;;;4508777;31;20561;-65
2022/07/29 09:04:00;;;;;;;2.47;1.20;;;22.50;55.10;;;;;;4508720;31;20083;-65
2022/07/29 09:06:32;;;;;;;2.58;1.23;;;22.50;55.10;;;;;;4508592;31;20083;-66
2022/07/29 09:08:59;;;;;;;3.67;1.20;;;22.50;55.00;;;;;;4508934;31;20090;-65
2022/07/29 09:11:26;;;;;;;3.83;1.27;;;22.50;55.00;;;;;;4508589;31;20064;-65
2022/07/29 09:13:52;;;;;;;5.25;1.40;;;22.50;55.00;;;;;;4508313;31;20095;-67
2022/07/29 09:16:18;;;;;;;4.53;1.23;;;22.50;55.00;;;;;;4508404;31;20084;-66
2022/07/29 09:18:45;;;;;;;4.35;1.30;;;22.50;55.00;;;;;;4508618;31;20084;-66
2022/07/29 09:24:12;;;;;;;2.15;1.10;;;22.50;55.00;;;;;;4508486;31;20279;-66
2022/07/29 09:26:46;;;;;;;2.38;1.00;;;22.50;54.90;;;;;;4507979;31;20239;-66
2022/07/29 09:29:15;;;;;;;1.98;1.00;;;22.50;54.90;;;;;;4508363;31;20080;-66
2022/07/29 09:31:46;;;;;;;5.22;1.17;;;22.60;54.90;;;;;;4508474;31;20081;-66
2022/07/29 09:34:14;;;;;;;6.80;1.20;;;22.50;54.80;;;;;;4508519;31;20076;-66
2022/07/29 09:36:43;;;;;;;3.35;1.30;;;22.60;54.90;;;;;;4507921;31;20234;-66
2022/07/29 09:39:10;;;;;;;3.08;1.27;;;22.60;54.80;;;;;;4508251;31;20134;-65
2022/07/29 09:41:54;;;;;;;2.63;1.38;;;22.50;54.70;;;;;;4508087;31;20085;-66
2022/07/29 09:44:21;;;;;;;6.25;1.20;;;22.60;54.80;;;;;;4508213;31;20176;-65
2022/07/29 09:47:13;;;;;;;3.38;1.30;;;22.50;54.80;;;;;;4507827;31;20161;-66
2022/07/29 09:49:59;;;;;;;3.88;1.27;;;22.50;54.80;;;;;;4505672;31;20191;-65
2022/07/29 09:52:27;;;;;;;2.65;1.20;;;22.60;54.80;;;;;;4508066;31;20084;-65
2022/07/29 09:54:56;;;;;;;3.25;1.33;;;22.60;54.80;;;;;;4507929;31;20086;-65
2022/07/29 09:57:24;;;;;;;2.60;1.20;;;22.60;54.90;;;;;;4508066;31;20096;-66
2022/07/29 10:00:08;;;;;;;3.33;1.20;;;22.60;54.90;;;;;;4507948;31;20069;-66
2022/07/29 10:02:36;;;;;;;1.80;1.38;;;22.60;55.00;;;;;;4508077;31;20068;-65
2022/07/29 10:05:05;;;;;;;5.57;1.30;;;22.60;54.90;;;;;;4507876;31;20083;-65
2022/07/29 10:07:44;;;;;;;5.95;1.33;;;22.60;55.00;;;;;;4507849;31;20165;-66
2022/07/29 10:10:10;;;;;;;2.30;1.20;;;22.60;55.00;;;;;;4507754;31;20096;-66
2022/07/29 10:12:53;;;;;;;3.60;1.10;;;22.60;55.00;;;;;;4507770;31;20073;-66
2022/07/29 10:15:20;;;;;;;2.55;1.20;;;22.60;54.90;;;;;;4508025;31;20119;-66
2022/07/29 10:17:47;;;;;;;3.38;1.20;;;22.60;55.00;;;;;;4507784;31;20524;-65
2022/07/29 10:20:14;;;;;;;3.55;1.10;;;22.60;54.90;;;;;;4507831;31;20096;-65
2022/07/29 10:22:41;;;;;;;2.08;1.08;;;22.60;54.90;;;;;;4507736;31;20173;-65
2022/07/29 10:25:08;;;;;;;10.77;1.50;;;22.60;54.90;;;;;;4507810;31;20092;-66
2022/07/29 10:27:35;;;;;;;3.78;1.17;;;22.60;54.90;;;;;;4507511;31;20068;-66
2022/07/29 10:30:04;;;;;;;4.40;1.30;;;22.60;55.00;;;;;;4507723;31;20088;-67
2022/07/29 10:32:36;;;;;;;2.40;1.13;;;22.60;55.90;;;;;;4507624;31;20201;-66
2022/07/29 10:35:27;;;;;;;2.60;1.15;;;22.60;54.90;;;;;;4507854;31;20068;-67
2022/07/29 10:37:56;;;;;;;3.30;1.20;;;22.60;55.00;;;;;;4507663;31;20198;-67
2022/07/29 10:43:35;;;;;;;4.70;1.30;;;22.60;55.50;;;;;;4507756;31;20084;-67
2022/07/29 10:46:02;;;;;;;3.75;1.38;;;22.60;55.50;;;;;;4507908;31;20079;-67
2022/07/29 10:48:29;;;;;;;2.60;1.55;;;22.60;55.40;;;;;;4507817;31;20406;-66
2022/07/29 10:51:04;;;;;;;3.13;1.38;;;22.60;56.50;;;;;;4507529;31;20069;-70
2022/07/29 10:53:52;;;;;;;4.93;1.85;;;22.60;55.50;;;;;;4507377;31;20547;-66
2022/07/29 10:56:30;;;;;;;5.50;1.40;;;22.60;55.60;;;;;;4507663;31;20153;-66
2022/07/29 10:59:19;;;;;;;4.65;1.40;;;22.60;55.50;;;;;;4507458;31;20073;-66
2022/07/29 11:01:49;;;;;;;3.38;1.33;;;22.60;55.40;;;;;;4508190;31;20646;-67
2022/07/29 11:04:16;;;;;;;6.68;1.73;;;22.60;55.30;;;;;;4510569;31;20076;-66
2022/07/29 11:07:00;;;;;;;4.10;1.45;;;22.60;55.30;;;;;;4510179;31;20095;-67
2022/07/29 11:09:26;;;;;;;6.07;1.30;;;22.60;55.30;;;;;;4510351;31;20132;-67
2022/07/29 11:11:52;;;;;;;3.38;1.30;;;22.60;55.30;;;;;;4510057;31;20195;-66
2022/07/29 11:14:39;;;;;;;4.07;1.20;;;22.60;55.30;;;;;;4495855;31;20367;-66
2022/07/29 11:17:06;;;;;;;5.80;1.52;;;22.60;55.40;;;;;;4509869;31;20076;-66
2022/07/29 11:19:32;;;;;;;7.70;1.33;;;22.60;55.50;;;;;;4510666;31;20410;-67
2022/07/29 11:21:58;;;;;;;3.45;1.77;;;22.60;55.60;;;;;;4495652;31;20524;-68
2022/07/29 11:24:30;;;;;;;6.22;1.80;;;22.60;55.60;;;;;;4509906;31;20126;-67
2022/07/29 11:27:17;;;;;;;3.45;1.23;;;22.60;55.60;;;;;;4510393;31;20089;-66
2022/07/29 11:30:09;;;;;;;3.72;1.52;;;22.60;55.60;;;;;;4510500;31;20083;-66
2022/07/29 11:32:38;;;;;;;4.45;1.40;;;22.60;55.60;;;;;;4494153;31;20165;-67
2022/07/29 11:35:11;;;;;;;5.38;1.73;;;22.60;55.60;;;;;;4510118;31;20161;-66
2022/07/29 11:37:37;;;;;;;4.32;1.35;;;22.60;55.60;;;;;;4509702;31;20135;-66
2022/07/29 11:40:06;;;;;;;4.70;1.60;;;22.60;55.60;;;;;;4509934;31;20194;-66
2022/07/29 11:42:35;;;;;;;3.08;1.42;;;22.60;55.60;;;;;;4509917;31;20268;-67
2022/07/29 11:45:08;;;;;;;8.15;1.40;;;22.60;55.70;;;;;;4509716;31;20092;-67
2022/07/29 11:47:46;;;;;;;5.63;1.80;;;22.60;55.70;;;;;;4510370;31;20097;-67
2022/07/29 11:50:15;;;;;;;4.45;1.67;;;22.60;55.70;;;;;;4509955;31;20056;-66
2022/07/29 11:52:46;;;;;;;7.70;1.40;;;22.60;55.70;;;;;;4509733;31;20069;-67
2022/07/29 11:55:17;;;;;;;2.55;1.30;;;22.60;55.70;;;;;;4510042;31;20153;-66
2022/07/29 11:57:59;;;;;;;4.78;1.40;;;22.60;55.80;;;;;;4509731;31;20161;-67
2022/07/29 12:00:39;;;;;;;2.20;1.30;;;22.60;55.90;;;;;;4495186;31;20280;-67
2022/07/29 12:03:10;;;;;;;2.45;1.20;;;22.60;55.90;;;;;;4509993;31;20071;-66
2022/07/29 12:05:47;;;;;;;5.20;1.60;;;22.60;55.90;;;;;;4509388;31;20226;-66
2022/07/29 12:08:18;;;;;;;4.18;1.52;;;22.60;55.90;;;;;;4509369;31;20075;-66
2022/07/29 12:10:45;;;;;;;5.60;1.83;;;22.60;55.90;;;;;;4509692;31;20087;-66
2022/07/29 12:13:13;;;;;;;3.00;1.52;;;22.70;56.00;;;;;;4508763;31;20083;-66
2022/07/29 12:15:40;;;;;;;3.03;1.48;;;22.60;56.00;;;;;;4509745;31;20076;-67
2022/07/29 12:18:17;;;;;;;6.55;1.92;;;22.70;56.10;;;;;;4509397;31;20083;-67
2022/07/29 12:20:44;;;;;;;6.00;2.03;;;22.60;56.10;;;;;;4509571;31;20454;-67
2022/07/29 12:23:12;;;;;;;4.35;1.95;;;22.60;56.10;;;;;;4509578;31;20112;-67
2022/07/29 12:25:40;;;;;;;4.45;2.13;;;22.70;56.20;;;;;;4509270;31;20080;-67
2022/07/29 12:28:09;;;;;;;3.55;1.88;;;22.70;56.20;;;;;;4494565;31;20478;-67
2022/07/29 12:30:48;;;;;;;8.20;2.28;;;22.70;56.20;;;;;;4508615;31;20080;-67
2022/07/29 12:33:20;;;;;;;8.60;2.07;;;22.70;56.30;;;;;;4509390;31;20399;-68
2022/07/29 12:35:50;;;;;;;5.13;1.80;;;22.70;56.30;;;;;;4509083;31;20079;-67
2022/07/29 12:38:16;;;;;;;5.28;1.83;;;22.70;56.30;;;;;;4508534;31;20203;-67
2022/07/29 12:40:42;;;;;;;6.82;1.77;;;22.80;56.30;;;;;;4509121;31;20064;-67
2022/07/29 12:43:09;;;;;;;4.57;1.90;;;22.80;56.30;;;;;;4509067;31;20093;-67
2022/07/29 12:45:38;;;;;;;7.25;1.83;;;22.80;56.50;;;;;;4508919;31;20081;-67
2022/07/29 12:48:05;;;;;;;4.35;1.73;;;22.80;56.60;;;;;;4508726;31;20506;-67
2022/07/29 12:50:32;;;;;;;6.18;2.13;;;22.80;56.60;;;;;;4508830;31;20084;-67
2022/07/29 12:53:13;;;;;;;3.45;1.60;;;22.90;56.60;;;;;;4508850;31;20073;-67
2022/07/29 12:55:44;;;;;;;5.38;1.85;;;22.90;56.50;;;;;;4508431;31;20222;-67
2022/07/29 12:58:09;;;;;;;4.60;2.00;;;22.90;56.60;;;;;;4508859;31;20124;-67
2022/07/29 13:00:36;;;;;;;8.30;1.95;;;22.90;56.60;;;;;;4508904;31;20108;-67
2022/07/29 13:03:02;;;;;;;7.25;1.80;;;23.00;56.60;;;;;;4508624;31;20080;-67
2022/07/29 13:05:44;;;;;;;5.03;1.55;;;23.00;56.50;;;;;;4508683;31;20092;-67